Time;durP1;ratioP1;P1;durP2;ratioP2;P2;SDS_P1;SDS_P2;PMS_P1;PMS_P2;Temp;Humidity;BMP_temperature;BMP_pressure;BME280_temperature;BME280_humidity;BME280_pressure;Samples;Min_cycle;Max_cycle;Signal;HPM_P1;HPM_P2
2021/10/08 00:00:26;;;;;;;17.55;8.70;;;;;;;2.26;72.59;102160.91;1720474;83;21057;-71
2021/10/08 00:02:55;;;;;;;21.23;11.50;;;;;;;2.20;72.91;102159.41;1725352;83;21418;-71
2021/10/08 00:05:22;;;;;;;24.20;11.33;;;;;;;2.15;73.05;102159.70;1725391;83;21068;-73
2021/10/08 00:07:48;;;;;;;20.40;9.60;;;;;;;2.11;73.38;102157.84;1725692;83;21060;-72
2021/10/08 00:10:16;;;;;;;24.02;10.78;;;;;;;2.07;73.09;102162.47;1701258;82;22250;-73
2021/10/08 00:12:44;;;;;;;20.35;9.88;;;;;;;2.02;73.35;102159.73;1696340;84;21073;-74
2021/10/08 00:15:11;;;;;;;24.15;10.28;;;;;;;1.98;73.60;102160.89;1696601;84;21112;-74
2021/10/08 00:17:38;;;;;;;21.73;10.60;;;;;;;1.97;73.35;102161.73;1696882;84;21068;-73
2021/10/08 00:20:06;;;;;;;22.75;10.63;;;;;;;1.94;73.85;102160.36;1696474;84;21127;-74
2021/10/08 00:22:33;;;;;;;21.77;10.55;;;;;;;1.91;73.69;102159.84;1696820;84;21119;-73
2021/10/08 00:25:00;;;;;;;21.85;10.48;;;;;;;1.89;73.85;102157.19;1696719;84;21068;-74
2021/10/08 00:27:26;;;;;;;22.32;9.70;;;;;;;1.86;74.38;102153.21;1696662;84;21568;-71
2021/10/08 00:29:53;;;;;;;22.98;10.72;;;;;;;1.84;73.90;102149.68;1696558;84;21124;-73
2021/10/08 00:32:20;;;;;;;20.05;10.18;;;;;;;1.82;74.21;102153.94;1696898;84;21073;-73
2021/10/08 00:34:47;;;;;;;24.32;10.55;;;;;;;1.81;74.14;102157.36;1696893;83;21152;-72
2021/10/08 00:37:15;;;;;;;20.88;9.48;;;;;;;1.79;74.23;102152.95;1696480;84;21057;-72
2021/10/08 00:39:41;;;;;;;21.68;10.18;;;;;;;1.79;75.30;102152.95;1696438;84;21045;-70
2021/10/08 00:42:08;;;;;;;20.17;10.13;;;;;;;1.79;74.77;102157.72;1696270;84;21556;-73
2021/10/08 00:44:35;;;;;;;18.77;9.43;;;;;;;1.80;75.04;102159.93;1696514;84;21551;-71
2021/10/08 00:47:13;;;;;;;20.63;9.43;;;;;;;1.78;75.08;102155.97;1680547;84;21154;-70
2021/10/08 00:49:42;;;;;;;15.40;8.93;;;;;;;1.79;74.80;102156.84;1696527;84;21500;-71
2021/10/08 00:52:09;;;;;;;24.05;9.13;;;;;;;1.80;75.40;102160.80;1696488;84;21109;-71
2021/10/08 00:54:36;;;;;;;21.00;10.20;;;;;;;1.79;75.06;102156.42;1696305;84;21528;-71
2021/10/08 00:57:03;;;;;;;21.50;10.17;;;;;;;1.79;75.26;102158.14;1715395;83;21072;-71
2021/10/08 00:59:33;;;;;;;20.65;9.45;;;;;;;1.80;75.63;102161.23;1725616;83;21152;-72
2021/10/08 01:02:00;;;;;;;21.25;9.75;;;;;;;1.80;75.02;102159.50;1712906;83;21062;-73
2021/10/08 01:04:26;;;;;;;17.32;8.80;;;;;;;1.79;75.11;102157.72;1704918;83;21279;-72
2021/10/08 01:06:52;;;;;;;19.62;10.05;;;;;;;1.80;74.99;102151.71;1713153;83;21045;-72
2021/10/08 01:09:19;;;;;;;24.25;10.28;;;;;;;1.79;74.87;102153.83;1712772;83;21069;-73
2021/10/08 01:11:46;;;;;;;20.37;9.33;;;;;;;1.79;74.93;102161.62;1712872;83;21122;-72
2021/10/08 01:14:13;;;;;;;18.55;9.35;;;;;;;1.77;74.56;102155.52;1712479;82;21242;-73
2021/10/08 01:16:41;;;;;;;21.73;8.88;;;;;;;1.78;75.39;102164.19;1712883;82;21062;-73
2021/10/08 01:19:08;;;;;;;17.52;9.10;;;;;;;1.78;75.61;102170.69;1712695;82;21089;-73
2021/10/08 01:21:36;;;;;;;20.82;10.10;;;;;;;1.78;75.41;102163.77;1702647;83;21039;-73
2021/10/08 01:24:04;;;;;;;16.05;8.73;;;;;;;1.78;76.86;102159.87;1712786;83;21162;-73
2021/10/08 01:26:31;;;;;;;20.72;9.95;;;;;;;1.76;75.86;102156.77;1712870;83;21054;-73
2021/10/08 01:28:58;;;;;;;17.65;9.28;;;;;;;1.75;76.09;102153.29;1712697;83;21058;-72
2021/10/08 01:31:25;;;;;;;17.35;8.78;;;;;;;1.73;76.17;102158.84;1712807;82;21577;-72
2021/10/08 01:33:56;;;;;;;28.95;10.53;;;;;;;1.71;75.68;102155.31;1712886;82;21093;-73
2021/10/08 01:36:23;;;;;;;19.73;9.68;;;;;;;1.70;75.81;102161.33;1712437;82;21126;-73
2021/10/08 01:38:51;;;;;;;20.92;10.35;;;;;;;1.68;75.33;102159.13;1712221;82;21034;-72
2021/10/08 01:41:18;;;;;;;23.22;11.25;;;;;;;1.68;75.36;102160.42;1712067;82;21639;-73
2021/10/08 01:43:48;;;;;;;18.65;10.95;;;;;;;1.52;75.81;102134.77;1712219;83;21066;-73
2021/10/08 01:46:15;;;;;;;28.27;11.50;;;;;;;1.64;75.42;102158.55;1712258;82;21149;-73
2021/10/08 01:48:42;;;;;;;17.75;9.88;;;;;;;1.63;75.47;102165.86;1712724;83;22226;-73
2021/10/08 01:51:09;;;;;;;24.92;10.45;;;;;;;1.62;76.19;102170.61;1712241;83;21106;-72
2021/10/08 01:53:38;;;;;;;23.50;10.03;;;;;;;1.61;75.63;102167.52;1712545;83;21081;-72
2021/10/08 01:56:05;;;;;;;21.80;11.33;;;;;;;1.61;76.39;102167.14;1712565;82;21070;-71
2021/10/08 01:58:34;;;;;;;27.40;12.82;;;;;;;1.61;76.39;102167.14;1712014;82;21104;-70
2021/10/08 02:01:01;;;;;;;28.20;12.15;;;;;;;1.63;75.82;102169.76;1713075;82;21127;-72
2021/10/08 02:03:32;;;;;;;24.20;12.43;;;;;;;1.62;76.40;102173.20;1690865;84;21036;-71
2021/10/08 02:05:59;;;;;;;28.73;11.70;;;;;;;1.62;75.81;102178.40;1662346;85;21097;-71
2021/10/08 02:08:27;;;;;;;19.87;11.00;;;;;;;1.61;75.78;102166.23;1657928;86;21819;-71
2021/10/08 02:10:55;;;;;;;21.77;11.75;;;;;;;1.61;76.00;102177.91;1668480;86;21067;-72
2021/10/08 02:13:23;;;;;;;21.35;12.68;;;;;;;1.60;75.51;102174.87;1668651;85;21897;-71
2021/10/08 02:15:55;;;;;;;19.37;10.43;;;;;;;1.59;76.32;102173.12;1668590;86;21095;-71
2021/10/08 02:18:19;;;;;;;23.38;10.98;;;;;;;1.59;76.02;102179.61;1668147;86;21064;-69
2021/10/08 02:20:46;;;;;;;24.43;10.93;;;;;;;1.57;75.97;102180.84;1668732;85;21096;-70
2021/10/08 02:23:13;;;;;;;25.90;10.25;;;;;;;1.56;76.46;102182.95;1668708;86;21077;-73
2021/10/08 02:25:41;;;;;;;26.25;12.20;;;;;;;1.55;76.12;102179.03;1668689;86;21162;-72
2021/10/08 02:28:08;;;;;;;20.00;10.58;;;;;;;1.55;76.41;102188.12;1669014;86;20992;-73
2021/10/08 02:30:35;;;;;;;23.15;12.45;;;;;;;1.52;76.22;102184.11;1668799;86;21067;-73
2021/10/08 02:33:02;;;;;;;31.50;12.50;;;;;;;1.50;76.18;102181.91;1668691;86;21107;-72
2021/10/08 02:35:29;;;;;;;22.37;11.48;;;;;;;1.48;77.43;102186.16;1668541;86;21096;-71
2021/10/08 02:37:55;;;;;;;23.02;13.03;;;;;;;1.45;76.46;102180.03;1668899;86;21839;-70
2021/10/08 02:40:22;;;;;;;19.65;11.05;;;;;;;1.44;76.71;102187.34;1668557;86;21056;-70
2021/10/08 02:42:49;;;;;;;27.27;12.15;;;;;;;1.41;76.89;102184.65;1668657;86;21052;-70
2021/10/08 02:45:16;;;;;;;21.82;12.35;;;;;;;1.42;76.66;102185.52;1668467;85;21108;-73
2021/10/08 02:47:43;;;;;;;20.40;11.55;;;;;;;1.38;76.92;102189.75;1668697;86;21113;-72
2021/10/08 02:50:09;;;;;;;24.60;12.30;;;;;;;1.34;76.53;102185.28;1668828;86;21198;-72
2021/10/08 02:52:37;;;;;;;19.90;11.10;;;;;;;1.32;76.59;102193.85;1668421;85;21540;-73
2021/10/08 02:55:08;;;;;;;28.27;12.00;;;;;;;1.29;76.81;102192.03;1668560;86;21013;-72
2021/10/08 02:57:38;;;;;;;;;;;;;;;1.25;76.79;102204.44;1671158;86;21100;-73
2021/10/08 03:00:08;;;;;;;22.67;10.98;;;;;;;1.26;78.05;102204.89;1668770;85;20221;-71
2021/10/08 03:02:34;;;;;;;26.40;12.15;;;;;;;1.24;77.85;102210.44;1679139;84;21115;-71
2021/10/08 03:05:02;;;;;;;23.40;11.70;;;;;;;1.23;78.01;102208.69;1675434;85;21017;-70
2021/10/08 03:07:29;;;;;;;18.95;11.15;;;;;;;1.23;77.91;102207.39;1668355;85;21572;-71
2021/10/08 03:09:55;;;;;;;24.85;13.03;;;;;;;1.24;78.07;102222.12;1668235;85;21088;-72
2021/10/08 03:12:22;;;;;;;20.72;11.10;;;;;;;1.24;78.07;102222.12;1668623;86;21051;-72
2021/10/08 03:14:48;;;;;;;24.85;11.53;;;;;;;1.21;77.68;102215.53;1668382;86;21135;-73
2021/10/08 03:17:15;;;;;;;23.12;12.63;;;;;;;1.18;77.90;102223.23;1668285;86;21531;-72
2021/10/08 03:19:42;;;;;;;21.12;12.07;;;;;;;1.16;78.42;102217.97;1668217;86;21524;-71
2021/10/08 03:22:09;;;;;;;25.70;12.23;;;;;;;1.16;78.42;102217.97;1668551;86;21057;-71
2021/10/08 03:24:36;;;;;;;21.85;11.30;;;;;;;1.18;78.71;102227.12;1641154;86;21094;-71
2021/10/08 03:27:03;;;;;;;23.02;11.35;;;;;;;1.18;78.71;102227.12;1668613;86;21133;-70
2021/10/08 03:29:30;;;;;;;20.20;10.93;;;;;;;1.18;78.52;102229.72;1669681;85;21128;-71
2021/10/08 03:31:58;;;;;;;22.73;12.25;;;;;;;1.20;79.10;102230.66;1683195;85;21009;-71
2021/10/08 03:34:25;;;;;;;28.32;14.10;;;;;;;1.22;78.72;102234.16;1683204;85;21059;-71
2021/10/08 03:36:54;;;;;;;25.15;12.70;;;;;;;1.23;78.75;102240.71;1671014;85;21138;-73
2021/10/08 03:39:25;;;;;;;30.55;12.73;;;;;;;1.26;79.15;102241.23;1670963;85;21149;-72
2021/10/08 03:41:53;;;;;;;28.98;12.35;;;;;;;1.29;78.59;102241.36;1670777;85;21038;-72
2021/10/08 03:44:21;;;;;;;23.02;12.78;;;;;;;1.31;78.80;102241.00;1682965;85;21049;-71
2021/10/08 03:46:52;;;;;;;22.00;13.20;;;;;;;1.30;78.67;102239.22;1670863;85;21081;-71
2021/10/08 03:49:20;;;;;;;24.98;13.83;;;;;;;1.32;78.50;102241.45;1671249;85;21109;-72
2021/10/08 03:51:47;;;;;;;31.95;13.00;;;;;;;1.33;78.85;102240.61;1667029;84;21818;-70
2021/10/08 03:54:16;;;;;;;25.10;13.50;;;;;;;1.33;78.56;102248.39;1671075;85;21071;-71
2021/10/08 03:56:44;;;;;;;19.60;12.28;;;;;;;1.34;78.79;102247.59;1674344;84;21136;-72
2021/10/08 03:59:10;;;;;;;23.60;12.58;;;;;;;1.35;78.94;102240.25;1673582;85;21140;-71
2021/10/08 04:01:37;;;;;;;22.87;12.68;;;;;;;1.37;78.68;102242.91;1674254;84;21148;-70
2021/10/08 04:04:08;;;;;;;28.60;15.53;;;;;;;1.38;79.09;102239.47;1674905;85;21101;-71
2021/10/08 04:06:36;;;;;;;28.55;14.90;;;;;;;1.39;78.62;102245.15;1662740;84;21050;-73
2021/10/08 04:09:05;;;;;;;30.48;15.40;;;;;;;1.41;78.55;102244.79;1649068;87;21078;-73
2021/10/08 04:11:34;;;;;;;23.32;12.78;;;;;;;1.42;78.83;102244.81;1648894;87;21070;-72
2021/10/08 04:14:00;;;;;;;27.15;14.38;;;;;;;1.42;78.50;102245.23;1649165;87;21675;-74
2021/10/08 04:16:28;;;;;;;29.92;12.95;;;;;;;1.43;78.95;102244.01;1677055;85;21154;-75
2021/10/08 04:18:54;;;;;;;26.62;13.62;;;;;;;1.43;78.80;102247.91;1678712;85;20986;-73
2021/10/08 04:21:21;;;;;;;24.85;13.50;;;;;;;1.45;79.17;102250.14;1677847;85;21057;-73
2021/10/08 04:23:48;;;;;;;25.20;13.50;;;;;;;1.45;79.17;102250.14;1685056;85;21061;-73
2021/10/08 04:26:15;;;;;;;25.10;13.35;;;;;;;1.46;78.67;102242.80;1720182;82;21076;-71
2021/10/08 04:28:42;;;;;;;24.02;13.13;;;;;;;1.48;78.71;102251.08;1720105;83;21132;-74
2021/10/08 04:31:09;;;;;;;25.15;14.95;;;;;;;1.49;78.58;102249.81;1719807;82;21072;-73
2021/10/08 04:33:37;;;;;;;27.90;14.28;;;;;;;1.49;78.47;102250.23;1713535;82;22398;-72
2021/10/08 04:36:04;;;;;;;28.42;13.53;;;;;;;1.52;78.73;102254.22;1704384;83;21038;-74
2021/10/08 04:38:35;;;;;;;31.60;16.50;;;;;;;1.54;78.51;102254.77;1691434;84;21139;-74
2021/10/08 04:41:04;;;;;;;27.22;14.10;;;;;;;1.58;78.41;102259.63;1691204;84;21178;-75
2021/10/08 04:43:31;;;;;;;31.42;14.18;;;;;;;1.60;78.61;102260.57;1691206;84;21611;-73
2021/10/08 04:45:58;;;;;;;41.42;16.93;;;;;;;1.63;78.22;102261.96;1701903;82;21069;-75
2021/10/08 04:48:26;;;;;;;25.30;15.03;;;;;;;1.66;78.37;102260.37;1731456;81;21037;-73
2021/10/08 04:50:55;;;;;;;27.48;15.70;;;;;;;1.86;78.59;102262.34;1719858;83;21084;-73
2021/10/08 04:53:23;;;;;;;31.80;15.28;;;;;;;2.30;77.40;102264.17;1718645;82;21881;-73
2021/10/08 04:55:50;;;;;;;26.77;15.53;;;;;;;2.85;75.97;102261.43;1720285;83;21128;-71
2021/10/08 04:58:19;;;;;;;41.13;16.65;;;;;;;3.13;74.08;102256.18;1691349;83;21049;-71
2021/10/08 05:00:46;;;;;;;24.37;14.03;;;;;;;3.10;72.26;102249.56;1696786;82;21527;-72
2021/10/08 05:03:15;;;;;;;30.77;15.32;;;;;;;3.04;72.93;102265.04;1723042;82;21100;-75
2021/10/08 05:05:51;;;;;;;36.00;15.70;;;;;;;2.92;72.26;102268.57;1722928;83;21185;-73
2021/10/08 05:08:18;;;;;;;28.10;14.53;;;;;;;2.79;72.46;102271.26;1725349;82;21124;-73
2021/10/08 05:10:44;;;;;;;30.02;15.48;;;;;;;2.76;73.41;102275.48;1725455;83;21076;-77
2021/10/08 05:13:12;;;;;;;29.42;15.40;;;;;;;3.15;72.08;102267.52;1725587;83;21013;-78
2021/10/08 05:15:39;;;;;;;32.80;16.35;;;;;;;3.73;69.86;102263.39;1725638;82;21646;-74
2021/10/08 05:18:06;;;;;;;39.92;16.17;;;;;;;4.35;68.40;102264.02;1725374;83;21564;-86
2021/10/08 05:20:33;;;;;;;30.25;14.35;;;;;;;4.94;65.14;102271.34;1726937;80;20927;-83
2021/10/08 05:23:01;;;;;;;28.55;14.78;;;;;;;5.51;64.07;102272.88;1725780;83;21122;-89
2021/10/08 05:25:27;;;;;;;24.92;14.35;;;;;;;6.00;60.32;102265.46;1726356;83;21080;-90
2021/10/08 05:27:54;;;;;;;26.40;14.10;;;;;;;6.36;58.23;102261.66;1724578;83;21080;-89
2021/10/08 05:30:21;;;;;;;26.52;14.13;;;;;;;6.70;56.66;102264.31;1726614;82;21143;-88
2021/10/08 05:32:49;;;;;;;27.95;14.15;;;;;;;7.03;55.77;102260.78;1725775;83;21014;-82
2021/10/08 05:35:16;;;;;;;24.60;14.33;;;;;;;7.31;55.05;102258.90;1725413;83;21014;-80
2021/10/08 05:37:43;;;;;;;26.10;14.45;;;;;;;7.63;53.88;102257.03;1711633;82;21048;-79
2021/10/08 05:40:11;;;;;;;28.47;14.23;;;;;;;7.94;52.03;102260.81;1704159;83;21090;-78
2021/10/08 05:42:40;;;;;;;24.27;13.68;;;;;;;8.22;51.39;102258.83;1708058;83;21261;-78
2021/10/08 05:45:07;;;;;;;27.13;14.07;;;;;;;8.47;50.80;102254.20;1702941;83;21069;-79
2021/10/08 05:47:34;;;;;;;25.55;13.98;;;;;;;8.71;49.78;102260.44;1723852;82;21120;-78
2021/10/08 05:50:01;;;;;;;30.25;14.93;;;;;;;8.91;49.04;102261.41;1725071;83;21097;-77
2021/10/08 05:52:27;;;;;;;27.15;14.07;;;;;;;9.17;48.53;102260.17;1725463;83;21057;-77
2021/10/08 05:54:54;;;;;;;27.45;13.85;;;;;;;9.52;48.01;102252.78;1724715;83;21477;-77
2021/10/08 05:57:21;;;;;;;32.28;14.05;;;;;;;9.91;46.25;102263.34;1724238;82;21045;-81
2021/10/08 05:59:49;;;;;;;21.07;11.57;;;;;;;10.06;45.29;102264.22;1724822;82;22141;-78
2021/10/08 06:02:15;;;;;;;30.57;13.43;;;;;;;10.27;45.61;102260.67;1724752;83;21573;-77
2021/10/08 06:04:43;;;;;;;24.10;12.75;;;;;;;10.47;44.25;102259.36;1724528;83;21137;-79
2021/10/08 06:07:10;;;;;;;22.82;13.25;;;;;;;10.66;43.24;102264.13;1724427;83;21151;-77
2021/10/08 06:09:37;;;;;;;20.27;12.13;;;;;;;10.78;43.01;102257.06;1724660;83;21044;-78
2021/10/08 06:12:06;;;;;;;23.22;13.15;;;;;;;10.97;43.03;102258.72;1724916;83;21055;-78
2021/10/08 06:14:34;;;;;;;30.40;13.32;;;;;;;11.19;42.29;102256.86;1723983;83;21132;-79
2021/10/08 06:17:01;;;;;;;26.95;13.13;;;;;;;11.34;41.35;102255.88;1724962;83;21551;-77
2021/10/08 06:19:30;;;;;;;24.23;11.50;;;;;;;11.48;41.54;102255.37;1725655;83;21054;-76
2021/10/08 06:21:57;;;;;;;21.70;12.73;;;;;;;11.69;40.87;102254.78;1690698;84;21142;-76
2021/10/08 06:24:23;;;;;;;20.92;12.45;;;;;;;11.91;40.51;102252.86;1667535;85;21056;-78
2021/10/08 06:26:50;;;;;;;25.75;12.88;;;;;;;12.05;40.10;102248.77;1663544;85;21112;-78
2021/10/08 06:29:18;;;;;;;20.32;13.18;;;;;;;12.31;39.78;102250.72;1668550;85;21050;-80
2021/10/08 06:31:45;;;;;;;28.73;13.22;;;;;;;12.56;38.60;102255.72;1682939;85;22303;-78
2021/10/08 06:34:12;;;;;;;24.27;12.88;;;;;;;12.64;39.12;102252.56;1683782;85;21149;-77
2021/10/08 06:36:40;;;;;;;23.20;12.23;;;;;;;12.71;38.15;102251.59;1686202;85;21050;-77
2021/10/08 06:39:07;;;;;;;26.45;12.78;;;;;;;12.88;38.95;102249.17;1675384;84;21087;-79
2021/10/08 06:41:34;;;;;;;24.70;12.78;;;;;;;13.05;38.11;102247.66;1670796;85;21040;-78
2021/10/08 06:44:04;;;;;;;20.97;12.50;;;;;;;13.33;37.67;102245.52;1670528;85;21594;-77
2021/10/08 06:46:31;;;;;;;20.37;11.55;;;;;;;13.52;37.03;102245.65;1655608;86;21101;-79
2021/10/08 06:48:58;;;;;;;19.05;12.05;;;;;;;13.71;37.01;102241.38;1673308;85;21695;-78
2021/10/08 06:51:25;;;;;;;21.50;12.10;;;;;;;13.88;36.14;102243.77;1673397;85;21076;-79
2021/10/08 06:53:52;;;;;;;25.72;11.78;;;;;;;14.09;36.25;102252.66;1673152;85;21043;-78
2021/10/08 06:56:20;;;;;;;20.68;12.35;;;;;;;14.42;35.71;102251.17;1672922;85;21237;-79
2021/10/08 06:58:57;;;;;;;29.25;11.50;;;;;;;14.63;35.03;102249.00;1669937;85;21545;-81
2021/10/08 07:01:24;;;;;;;20.08;10.05;;;;;;;14.83;33.70;102245.95;1665030;83;21091;-81
2021/10/08 07:03:52;;;;;;;21.25;10.00;;;;;;;14.96;33.77;102243.92;1667090;85;21585;-78
2021/10/08 07:06:19;;;;;;;18.30;10.28;;;;;;;14.97;33.57;102247.85;1670153;84;21612;-78
2021/10/08 07:08:47;;;;;;;19.37;11.05;;;;;;;15.07;32.99;102249.42;1673641;84;21150;-78
2021/10/08 07:11:14;;;;;;;22.82;11.28;;;;;;;15.12;33.12;102242.68;1656408;84;21034;-80
2021/10/08 07:13:40;;;;;;;25.00;12.07;;;;;;;15.17;33.30;102238.13;1660955;84;21603;-77
2021/10/08 07:16:07;;;;;;;24.00;12.05;;;;;;;15.41;33.61;102234.48;1653087;85;21097;-79
2021/10/08 07:18:35;;;;;;;24.75;10.65;;;;;;;15.84;32.87;102237.45;1676760;84;21037;-79
2021/10/08 07:21:03;;;;;;;19.77;10.28;;;;;;;16.20;32.03;102238.28;1703362;82;22240;-78
2021/10/08 07:23:34;;;;;;;18.55;9.10;;;;;;;16.33;31.25;102234.81;1684390;82;21528;-79
2021/10/08 07:26:01;;;;;;;22.17;9.55;;;;;;;16.61;32.22;102238.92;1692901;83;21564;-78
2021/10/08 07:28:27;;;;;;;25.43;9.50;;;;;;;17.16;30.27;102228.42;1712531;82;21053;-79
2021/10/08 07:30:54;;;;;;;16.23;9.13;;;;;;;17.04;30.10;102228.81;1711731;82;21069;-77
2021/10/08 07:33:22;;;;;;;19.50;8.60;;;;;;;16.53;29.50;102239.13;1700997;82;21140;-77
2021/10/08 07:35:50;;;;;;;13.90;8.25;;;;;;;15.73;30.43;102231.97;1708348;82;21034;-76
2021/10/08 07:38:16;;;;;;;16.05;8.25;;;;;;;14.83;31.87;102238.86;1716383;82;21031;-80
2021/10/08 07:40:45;;;;;;;16.30;7.85;;;;;;;14.04;32.88;102239.49;1713680;82;21063;-78
2021/10/08 07:43:12;;;;;;;17.80;9.38;;;;;;;13.42;34.64;102242.73;1728487;82;21101;-78
2021/10/08 07:45:38;;;;;;;20.85;9.90;;;;;;;12.89;35.69;102246.98;1680223;85;21091;-79
2021/10/08 07:48:05;;;;;;;17.77;9.35;;;;;;;12.46;36.71;102247.48;1711856;83;21158;-79
2021/10/08 07:50:32;;;;;;;27.98;10.78;;;;;;;12.18;37.23;102243.81;1712482;82;21522;-78
2021/10/08 07:52:58;;;;;;;16.85;8.85;;;;;;;11.93;38.11;102246.67;1676376;84;22113;-80
2021/10/08 07:55:25;;;;;;;20.12;9.45;;;;;;;11.72;38.48;102246.83;1713751;82;21072;-78
2021/10/08 07:57:51;;;;;;;19.17;9.73;;;;;;;11.54;39.25;102243.43;1696355;82;21488;-79
2021/10/08 08:00:20;;;;;;;18.52;9.25;;;;;;;11.48;39.52;102238.22;1715411;82;21065;-78
2021/10/08 08:02:47;;;;;;;24.07;9.55;;;;;;;11.42;39.50;102240.89;1716357;82;21053;-78
2021/10/08 08:05:14;;;;;;;17.85;10.48;;;;;;;11.36;39.79;102238.28;1716625;82;21538;-79
2021/10/08 08:07:41;;;;;;;18.70;9.58;;;;;;;11.38;40.08;102241.79;1716538;83;21101;-78
2021/10/08 08:10:09;;;;;;;16.40;9.23;;;;;;;11.43;39.41;102247.03;1724935;82;21450;-78
2021/10/08 08:12:36;;;;;;;19.82;9.03;;;;;;;11.39;39.21;102243.56;1724590;83;21089;-78
2021/10/08 08:15:06;;;;;;;19.70;9.85;;;;;;;11.37;39.39;102253.24;1725055;82;21080;-78
2021/10/08 08:17:32;;;;;;;17.80;8.28;;;;;;;11.35;39.00;102247.09;1725112;83;21100;-78
2021/10/08 08:19:59;;;;;;;15.50;9.48;;;;;;;11.34;39.17;102250.60;1725727;82;21069;-79
2021/10/08 08:22:25;;;;;;;27.75;9.58;;;;;;;11.34;39.03;102250.60;1725470;83;21085;-79
2021/10/08 08:24:52;;;;;;;19.87;8.60;;;;;;;11.31;38.54;102250.63;1725610;83;21468;-79
2021/10/08 08:27:18;;;;;;;17.25;8.55;;;;;;;11.32;39.52;102248.45;1725790;82;21045;-79
2021/10/08 08:29:45;;;;;;;18.95;8.33;;;;;;;11.36;39.16;102246.20;1725904;83;21140;-77
2021/10/08 08:32:11;;;;;;;20.97;7.25;;;;;;;11.53;38.66;102244.33;1725720;83;21064;-79
2021/10/08 08:34:38;;;;;;;23.75;7.42;;;;;;;11.71;37.24;102246.38;1725557;82;21063;-78
2021/10/08 08:37:05;;;;;;;26.48;8.38;;;;;;;12.00;36.73;102243.53;1724136;83;21589;-78
2021/10/08 08:39:34;;;;;;;21.57;8.30;;;;;;;12.43;36.37;102236.50;1725391;83;21052;-78
2021/10/08 08:42:00;;;;;;;22.05;8.80;;;;;;;13.11;35.45;102239.61;1725252;83;21532;-78
2021/10/08 08:44:26;;;;;;;27.77;8.38;;;;;;;13.92;33.96;102230.88;1725288;83;21092;-78
2021/10/08 08:46:58;;;;;;;35.28;8.75;;;;;;;14.73;32.29;102229.37;1725367;83;21540;-79
2021/10/08 08:49:25;;;;;;;31.65;7.50;;;;;;;15.19;30.77;102228.36;1725144;83;21072;-78
2021/10/08 08:51:52;;;;;;;18.23;7.08;;;;;;;15.27;29.82;102230.83;1725185;83;21068;-79
2021/10/08 08:54:19;;;;;;;20.48;6.40;;;;;;;15.15;29.97;102229.33;1725289;83;21048;-78
2021/10/08 08:56:45;;;;;;;18.23;7.25;;;;;;;15.06;29.33;102233.52;1725286;83;21457;-78
2021/10/08 08:59:14;;;;;;;24.35;7.53;;;;;;;15.04;29.68;102234.00;1725297;83;21101;-77
2021/10/08 09:02:01;;;;;;;13.53;5.92;;;;;;;14.98;30.28;102232.38;1725394;83;21037;-79
2021/10/08 09:04:32;;;;;;;18.62;6.17;;;;;;;15.41;27.96;102230.04;1715254;83;21094;-77
2021/10/08 09:06:59;;;;;;;26.20;7.85;;;;;;;15.56;28.28;102224.83;1711997;83;21082;-78
2021/10/08 09:09:26;;;;;;;19.98;7.97;;;;;;;15.27;28.48;102227.70;1711668;83;21099;-78
2021/10/08 09:11:55;;;;;;;21.30;7.62;;;;;;;14.83;29.35;102217.64;1708926;83;21084;-78
2021/10/08 09:14:27;;;;;;;24.60;7.40;;;;;;;14.56;29.93;102220.88;1695862;82;21628;-76
2021/10/08 09:18:17;;;;;;;22.55;7.85;;;;;;;14.18;31.03;102217.17;1786278;79;23218;-77
2021/10/08 09:21:07;;;;;;;24.98;8.93;;;;;;;14.02;30.42;102217.45;1753628;81;21004;-78
2021/10/08 09:23:41;;;;;;;18.77;7.47;;;;;;;14.08;31.42;102218.23;1756550;80;20946;-80
2021/10/08 09:26:21;;;;;;;19.05;6.50;;;;;;;14.46;30.05;102210.42;1757051;81;21505;-80
2021/10/08 09:29:02;;;;;;;17.75;8.10;;;;;;;15.02;29.27;102203.97;1757121;81;20922;-80
2021/10/08 09:31:40;;;;;;;14.80;7.30;;;;;;;15.68;28.99;102192.64;1756693;81;21330;-79
2021/10/08 09:34:21;;;;;;;11.97;6.20;;;;;;;16.22;27.65;102193.92;1756424;81;20942;-79
2021/10/08 09:36:56;;;;;;;16.93;5.92;;;;;;;16.60;27.34;102178.64;1756767;81;21733;-78
2021/10/08 09:39:26;;;;;;;18.48;5.92;;;;;;;17.13;27.01;102172.63;1737471;80;21715;-79
2021/10/08 09:42:04;;;;;;;11.75;6.15;;;;;;;17.59;26.77;102169.30;1738761;80;21075;-75
2021/10/08 09:44:32;;;;;;;14.50;6.22;;;;;;;17.90;26.17;102164.73;1759008;80;21048;-76
2021/10/08 09:47:14;;;;;;;25.55;6.30;;;;;;;18.64;25.89;102158.44;1759582;80;21031;-77
2021/10/08 09:49:41;;;;;;;19.35;4.35;;;;;;;19.10;23.80;102150.91;1772603;80;21838;-76
2021/10/08 09:52:31;;;;;;;18.92;4.33;;;;;;;19.15;22.17;102155.59;1759493;80;20985;-77
2021/10/08 09:55:06;;;;;;;11.03;3.35;;;;;;;19.00;22.89;102151.29;1771737;80;21052;-75
2021/10/08 09:57:53;;;;;;;13.58;3.98;;;;;;;18.79;23.23;102148.12;1758725;81;21080;-77
2021/10/08 10:00:56;;;;;;;17.75;4.00;;;;;;;18.82;22.56;102145.35;1769398;78;21175;-79
2021/10/08 10:03:21;;;;;;;13.32;3.50;;;;;;;18.90;22.53;102147.23;1791899;80;22032;-80
2021/10/08 10:05:48;;;;;;;45.83;4.67;;;;;;;18.82;21.82;102140.88;1773047;80;21658;-80
2021/10/08 10:08:15;;;;;;;25.72;4.92;;;;;;;18.72;21.53;102149.26;1759280;81;21047;-79
2021/10/08 10:10:42;;;;;;;17.20;3.30;;;;;;;18.65;21.62;102149.48;1764892;78;21051;-78
2021/10/08 10:13:11;;;;;;;9.95;2.83;;;;;;;18.48;21.44;102142.61;1759475;81;21487;-78
2021/10/08 10:15:41;;;;;;;11.18;3.20;;;;;;;18.26;21.57;102141.68;1740862;80;22080;-78
2021/10/08 10:18:14;;;;;;;12.28;3.35;;;;;;;18.18;22.37;102133.50;1769864;80;21037;-78
2021/10/08 10:20:47;;;;;;;11.83;3.20;;;;;;;18.37;21.27;102140.81;1771662;80;21048;-77
2021/10/08 10:23:17;;;;;;;14.00;2.67;;;;;;;18.28;22.25;102127.36;1771604;80;21618;-78
2021/10/08 10:25:44;;;;;;;11.78;3.65;;;;;;;18.31;22.20;102119.70;1775267;80;21049;-78
2021/10/08 10:28:11;;;;;;;7.72;2.90;;;;;;;18.51;21.50;102137.16;1777117;80;21655;-77
2021/10/08 10:30:38;;;;;;;6.85;3.05;;;;;;;18.70;22.22;102115.09;1779758;80;21347;-77
2021/10/08 10:33:04;;;;;;;11.83;2.77;;;;;;;18.62;20.96;102122.94;1725962;81;21068;-77
2021/10/08 10:35:49;;;;;;;9.25;2.45;;;;;;;18.52;21.13;102129.57;1762671;80;21656;-77
2021/10/08 10:38:39;;;;;;;8.55;3.17;;;;;;;18.43;21.78;102119.25;1753376;81;21547;-79
2021/10/08 10:41:13;;;;;;;12.00;2.75;;;;;;;18.35;21.51;102116.86;1771213;80;21548;-77
2021/10/08 10:43:51;;;;;;;7.72;3.00;;;;;;;18.30;21.26;102117.97;1753934;81;21091;-77
2021/10/08 10:52:01;;;;;;;11.78;2.77;;;;;;;18.48;20.62;102118.60;1762560;80;21017;-79
2021/10/08 10:54:49;;;;;;;20.55;3.33;;;;;;;18.26;20.76;102113.67;1753694;81;21408;-79
2021/10/08 10:57:31;;;;;;;4.80;2.20;;;;;;;17.97;20.17;102123.64;1731771;80;21590;-77
2021/10/08 11:00:33;;;;;;;8.38;2.80;;;;;;;17.80;20.20;102121.52;1763034;80;21049;-76
2021/10/08 11:03:13;;;;;;;12.88;2.60;;;;;;;17.77;20.71;102121.64;1773257;80;21033;-77
2021/10/08 11:06:07;;;;;;;8.85;2.80;;;;;;;17.62;20.77;102120.37;1784398;80;21028;-80
2021/10/08 11:08:39;;;;;;;13.72;3.17;;;;;;;17.68;20.71;102112.17;1782533;80;21830;-78
2021/10/08 11:11:15;;;;;;;11.12;2.45;;;;;;;17.66;21.77;102108.69;1780802;80;21028;-78
2021/10/08 11:13:43;;;;;;;17.25;9.35;;;;;;;17.61;20.71;102122.64;1767527;80;21020;-78
2021/10/08 11:16:11;;;;;;;5.25;3.22;;;;;;;17.48;20.93;102108.00;1758587;80;21033;-78
2021/10/08 11:18:49;;;;;;;13.80;3.60;;;;;;;17.38;21.93;102108.78;1762104;80;21020;-79
2021/10/08 11:21:39;;;;;;;14.58;4.10;;;;;;;17.32;21.88;102099.22;1754124;81;21537;-79
2021/10/08 11:24:22;;;;;;;14.78;3.25;;;;;;;17.39;22.14;102095.42;1753666;81;21571;-78
2021/10/08 11:27:00;;;;;;;33.73;4.08;;;;;;;17.34;22.13;102097.34;1753587;81;21036;-78
2021/10/08 11:29:31;;;;;;;21.70;7.25;;;;;;;16.94;21.26;102100.02;1753262;81;21571;-79
2021/10/08 11:32:13;;;;;;;20.15;5.30;;;;;;;16.60;21.34;102092.66;1759584;79;21016;-80